sensor_id;sensor_type;location;lat;lon;timestamp;temperature;humidity
9837;DHT22;4957;51.412;6.724;2024-01-07T00:01:01;4.60;99.90
9837;DHT22;4957;51.412;6.724;2024-01-07T00:03:27;4.60;99.90
9837;DHT22;4957;51.412;6.724;2024-01-07T00:05:53;4.60;99.90
9837;DHT22;4957;51.412;6.724;2024-01-07T00:08:18;4.60;99.90
9837;DHT22;4957;51.412;6.724;2024-01-07T00:10:44;4.60;99.90
9837;DHT22;4957;51.412;6.724;2024-01-07T00:13:10;4.60;99.90
9837;DHT22;4957;51.412;6.724;2024-01-07T00:15:35;4.60;99.90
9837;DHT22;4957;51.412;6.724;2024-01-07T00:18:01;4.60;99.90
9837;DHT22;4957;51.412;6.724;2024-01-07T00:20:27;4.60;99.90
9837;DHT22;4957;51.412;6.724;2024-01-07T00:22:52;4.60;99.90
9837;DHT22;4957;51.412;6.724;2024-01-07T00:25:18;4.60;99.90
9837;DHT22;4957;51.412;6.724;2024-01-07T00:27:44;4.60;99.90
9837;DHT22;4957;51.412;6.724;2024-01-07T00:30:10;4.60;99.90
9837;DHT22;4957;51.412;6.724;2024-01-07T00:32:36;4.60;99.90
9837;DHT22;4957;51.412;6.724;2024-01-07T00:35:02;4.60;99.90
9837;DHT22;4957;51.412;6.724;2024-01-07T00:37:28;4.50;99.90
9837;DHT22;4957;51.412;6.724;2024-01-07T00:39:54;4.50;99.90
9837;DHT22;4957;51.412;6.724;2024-01-07T00:42:20;4.50;99.90
9837;DHT22;4957;51.412;6.724;2024-01-07T00:44:46;4.50;99.90
9837;DHT22;4957;51.412;6.724;2024-01-07T00:47:12;4.50;99.90
9837;DHT22;4957;51.412;6.724;2024-01-07T00:49:37;4.50;99.90
9837;DHT22;4957;51.412;6.724;2024-01-07T00:52:05;4.50;99.90
9837;DHT22;4957;51.412;6.724;2024-01-07T00:54:30;4.50;99.90
9837;DHT22;4957;51.412;6.724;2024-01-07T00:56:56;4.50;99.90
9837;DHT22;4957;51.412;6.724;2024-01-07T00:59:22;4.50;99.90
9837;DHT22;4957;51.412;6.724;2024-01-07T01:01:48;4.50;99.90
9837;DHT22;4957;51.412;6.724;2024-01-07T01:04:13;4.50;99.90
9837;DHT22;4957;51.412;6.724;2024-01-07T01:06:39;4.50;99.90
9837;DHT22;4957;51.412;6.724;2024-01-07T01:09:04;4.50;99.90
9837;DHT22;4957;51.412;6.724;2024-01-07T01:11:30;4.50;99.90
9837;DHT22;4957;51.412;6.724;2024-01-07T01:13:56;4.50;99.90
9837;DHT22;4957;51.412;6.724;2024-01-07T01:16:21;4.50;99.90
9837;DHT22;4957;51.412;6.724;2024-01-07T01:18:49;4.50;99.90
9837;DHT22;4957;51.412;6.724;2024-01-07T01:21:15;4.40;99.90
9837;DHT22;4957;51.412;6.724;2024-01-07T01:23:41;4.40;99.90
9837;DHT22;4957;51.412;6.724;2024-01-07T01:26:06;4.40;99.90
9837;DHT22;4957;51.412;6.724;2024-01-07T01:28:32;4.40;99.90
9837;DHT22;4957;51.412;6.724;2024-01-07T01:30:58;4.40;99.90
9837;DHT22;4957;51.412;6.724;2024-01-07T01:33:23;4.40;99.90
9837;DHT22;4957;51.412;6.724;2024-01-07T01:35:49;4.40;99.90
9837;DHT22;4957;51.412;6.724;2024-01-07T01:38:15;4.40;99.90
9837;DHT22;4957;51.412;6.724;2024-01-07T01:40:40;4.40;99.90
9837;DHT22;4957;51.412;6.724;2024-01-07T01:43:06;4.40;99.90
9837;DHT22;4957;51.412;6.724;2024-01-07T01:45:32;4.40;99.90
9837;DHT22;4957;51.412;6.724;2024-01-07T01:47:57;4.40;99.90
9837;DHT22;4957;51.412;6.724;2024-01-07T01:50:23;4.40;99.90
9837;DHT22;4957;51.412;6.724;2024-01-07T01:52:49;4.40;99.90
9837;DHT22;4957;51.412;6.724;2024-01-07T01:55:16;4.40;99.90
9837;DHT22;4957;51.412;6.724;2024-01-07T01:57:41;4.40;99.90
9837;DHT22;4957;51.412;6.724;2024-01-07T02:00:08;4.40;99.90
9837;DHT22;4957;51.412;6.724;2024-01-07T02:02:34;4.40;99.90
9837;DHT22;4957;51.412;6.724;2024-01-07T02:05:04;4.30;99.90
9837;DHT22;4957;51.412;6.724;2024-01-07T02:07:32;4.40;99.90
9837;DHT22;4957;51.412;6.724;2024-01-07T02:09:59;4.30;99.90
9837;DHT22;4957;51.412;6.724;2024-01-07T02:12:25;4.30;99.90
9837;DHT22;4957;51.412;6.724;2024-01-07T02:14:50;4.30;99.90
9837;DHT22;4957;51.412;6.724;2024-01-07T02:17:17;4.30;99.90
9837;DHT22;4957;51.412;6.724;2024-01-07T02:19:43;4.30;99.90
9837;DHT22;4957;51.412;6.724;2024-01-07T02:22:09;4.30;99.90
9837;DHT22;4957;51.412;6.724;2024-01-07T02:24:34;4.30;99.90
9837;DHT22;4957;51.412;6.724;2024-01-07T02:27:00;4.30;99.90
9837;DHT22;4957;51.412;6.724;2024-01-07T02:29:29;4.30;99.90
9837;DHT22;4957;51.412;6.724;2024-01-07T02:31:55;4.30;99.90
9837;DHT22;4957;51.412;6.724;2024-01-07T02:34:20;4.30;99.90
9837;DHT22;4957;51.412;6.724;2024-01-07T02:36:46;4.30;99.90
9837;DHT22;4957;51.412;6.724;2024-01-07T02:39:12;4.30;99.90
9837;DHT22;4957;51.412;6.724;2024-01-07T02:41:37;4.30;99.90
9837;DHT22;4957;51.412;6.724;2024-01-07T02:44:03;4.30;99.90
9837;DHT22;4957;51.412;6.724;2024-01-07T02:46:30;4.30;99.90
9837;DHT22;4957;51.412;6.724;2024-01-07T02:48:55;4.30;99.90
9837;DHT22;4957;51.412;6.724;2024-01-07T02:51:21;4.30;99.90
9837;DHT22;4957;51.412;6.724;2024-01-07T02:53:47;4.30;99.90
9837;DHT22;4957;51.412;6.724;2024-01-07T02:56:12;4.30;99.90
9837;DHT22;4957;51.412;6.724;2024-01-07T02:58:38;4.30;99.90
9837;DHT22;4957;51.412;6.724;2024-01-07T03:01:08;4.30;99.90
9837;DHT22;4957;51.412;6.724;2024-01-07T03:03:35;4.30;99.90
9837;DHT22;4957;51.412;6.724;2024-01-07T03:06:00;4.30;99.90
9837;DHT22;4957;51.412;6.724;2024-01-07T03:08:26;4.30;99.90
9837;DHT22;4957;51.412;6.724;2024-01-07T03:10:53;4.20;99.90
9837;DHT22;4957;51.412;6.724;2024-01-07T03:13:19;4.30;99.90
9837;DHT22;4957;51.412;6.724;2024-01-07T03:15:44;4.30;99.90
9837;DHT22;4957;51.412;6.724;2024-01-07T03:18:10;4.20;99.90
9837;DHT22;4957;51.412;6.724;2024-01-07T03:20:35;4.30;99.90
9837;DHT22;4957;51.412;6.724;2024-01-07T03:23:01;4.20;99.90
9837;DHT22;4957;51.412;6.724;2024-01-07T03:25:27;4.20;99.90
9837;DHT22;4957;51.412;6.724;2024-01-07T03:27:53;4.20;99.90
9837;DHT22;4957;51.412;6.724;2024-01-07T03:30:18;4.20;99.90
9837;DHT22;4957;51.412;6.724;2024-01-07T03:32:44;4.20;99.90
9837;DHT22;4957;51.412;6.724;2024-01-07T03:35:10;4.20;99.90
9837;DHT22;4957;51.412;6.724;2024-01-07T03:37:35;4.20;99.90
9837;DHT22;4957;51.412;6.724;2024-01-07T03:40:01;4.20;99.90
9837;DHT22;4957;51.412;6.724;2024-01-07T03:42:27;4.20;99.90
9837;DHT22;4957;51.412;6.724;2024-01-07T03:44:53;4.20;99.90
9837;DHT22;4957;51.412;6.724;2024-01-07T03:47:19;4.20;99.90
9837;DHT22;4957;51.412;6.724;2024-01-07T03:49:44;4.20;99.90
9837;DHT22;4957;51.412;6.724;2024-01-07T03:52:10;4.10;99.90
9837;DHT22;4957;51.412;6.724;2024-01-07T03:54:35;4.10;99.90
9837;DHT22;4957;51.412;6.724;2024-01-07T03:57:01;4.10;99.90
9837;DHT22;4957;51.412;6.724;2024-01-07T03:59:27;4.20;99.90
9837;DHT22;4957;51.412;6.724;2024-01-07T04:01:54;4.10;99.90
9837;DHT22;4957;51.412;6.724;2024-01-07T04:04:20;4.10;99.90
9837;DHT22;4957;51.412;6.724;2024-01-07T04:06:45;4.10;99.90
9837;DHT22;4957;51.412;6.724;2024-01-07T04:09:11;4.10;99.90
9837;DHT22;4957;51.412;6.724;2024-01-07T04:11:43;4.10;99.90
9837;DHT22;4957;51.412;6.724;2024-01-07T04:14:09;4.10;99.90
9837;DHT22;4957;51.412;6.724;2024-01-07T04:16:35;4.10;99.90
9837;DHT22;4957;51.412;6.724;2024-01-07T04:19:01;4.10;99.90
9837;DHT22;4957;51.412;6.724;2024-01-07T04:21:26;4.10;99.90
9837;DHT22;4957;51.412;6.724;2024-01-07T04:23:52;4.10;99.90
9837;DHT22;4957;51.412;6.724;2024-01-07T04:26:18;4.10;99.90
9837;DHT22;4957;51.412;6.724;2024-01-07T04:28:44;4.10;99.90
9837;DHT22;4957;51.412;6.724;2024-01-07T04:31:10;4.10;99.90
9837;DHT22;4957;51.412;6.724;2024-01-07T04:33:35;4.10;99.90
9837;DHT22;4957;51.412;6.724;2024-01-07T04:36:01;4.00;99.90
9837;DHT22;4957;51.412;6.724;2024-01-07T04:38:27;4.00;99.90
9837;DHT22;4957;51.412;6.724;2024-01-07T04:40:53;4.00;99.90
9837;DHT22;4957;51.412;6.724;2024-01-07T04:43:21;4.00;99.90
9837;DHT22;4957;51.412;6.724;2024-01-07T04:45:47;4.00;99.90
9837;DHT22;4957;51.412;6.724;2024-01-07T04:48:13;4.00;99.90
9837;DHT22;4957;51.412;6.724;2024-01-07T04:50:42;4.00;99.90
9837;DHT22;4957;51.412;6.724;2024-01-07T04:53:08;4.00;99.90
9837;DHT22;4957;51.412;6.724;2024-01-07T04:55:34;3.90;99.90
9837;DHT22;4957;51.412;6.724;2024-01-07T04:58:01;3.90;99.90
9837;DHT22;4957;51.412;6.724;2024-01-07T05:00:27;3.90;99.90
9837;DHT22;4957;51.412;6.724;2024-01-07T05:02:52;4.00;99.90
9837;DHT22;4957;51.412;6.724;2024-01-07T05:05:18;3.90;99.90
9837;DHT22;4957;51.412;6.724;2024-01-07T05:07:44;3.90;99.90
9837;DHT22;4957;51.412;6.724;2024-01-07T05:10:10;3.90;99.90
9837;DHT22;4957;51.412;6.724;2024-01-07T05:12:35;3.90;99.90
9837;DHT22;4957;51.412;6.724;2024-01-07T05:15:01;3.90;99.90
9837;DHT22;4957;51.412;6.724;2024-01-07T05:17:28;3.90;99.90
9837;DHT22;4957;51.412;6.724;2024-01-07T05:19:54;3.90;99.90
9837;DHT22;4957;51.412;6.724;2024-01-07T05:22:20;3.90;99.90
9837;DHT22;4957;51.412;6.724;2024-01-07T05:24:46;3.80;99.90
9837;DHT22;4957;51.412;6.724;2024-01-07T05:27:12;3.90;99.90
9837;DHT22;4957;51.412;6.724;2024-01-07T05:29:38;3.80;99.90
9837;DHT22;4957;51.412;6.724;2024-01-07T05:32:03;3.80;99.90
9837;DHT22;4957;51.412;6.724;2024-01-07T05:34:29;3.80;99.90
9837;DHT22;4957;51.412;6.724;2024-01-07T05:36:55;3.80;99.90
9837;DHT22;4957;51.412;6.724;2024-01-07T05:39:21;3.80;99.90
9837;DHT22;4957;51.412;6.724;2024-01-07T05:41:47;3.80;99.90
9837;DHT22;4957;51.412;6.724;2024-01-07T05:44:12;3.70;99.90
9837;DHT22;4957;51.412;6.724;2024-01-07T05:46:39;3.70;99.90
9837;DHT22;4957;51.412;6.724;2024-01-07T05:49:08;3.70;99.90
9837;DHT22;4957;51.412;6.724;2024-01-07T05:51:37;3.70;99.90
9837;DHT22;4957;51.412;6.724;2024-01-07T05:54:03;3.70;99.90
9837;DHT22;4957;51.412;6.724;2024-01-07T05:56:29;3.70;99.90
9837;DHT22;4957;51.412;6.724;2024-01-07T05:58:54;3.70;99.90
9837;DHT22;4957;51.412;6.724;2024-01-07T06:01:20;3.70;99.90
9837;DHT22;4957;51.412;6.724;2024-01-07T06:03:47;3.70;99.90
9837;DHT22;4957;51.412;6.724;2024-01-07T06:06:16;3.70;99.90
9837;DHT22;4957;51.412;6.724;2024-01-07T06:08:42;3.70;99.90
9837;DHT22;4957;51.412;6.724;2024-01-07T06:11:08;3.70;99.90
9837;DHT22;4957;51.412;6.724;2024-01-07T06:13:34;3.70;99.90
9837;DHT22;4957;51.412;6.724;2024-01-07T06:15:59;3.70;99.90
9837;DHT22;4957;51.412;6.724;2024-01-07T06:18:25;3.70;99.90
9837;DHT22;4957;51.412;6.724;2024-01-07T06:20:51;3.60;99.90
9837;DHT22;4957;51.412;6.724;2024-01-07T06:23:16;3.60;99.90
9837;DHT22;4957;51.412;6.724;2024-01-07T06:25:42;3.60;99.90
9837;DHT22;4957;51.412;6.724;2024-01-07T06:28:08;3.60;99.90
9837;DHT22;4957;51.412;6.724;2024-01-07T06:30:35;3.60;99.90
9837;DHT22;4957;51.412;6.724;2024-01-07T06:33:01;3.60;99.90
9837;DHT22;4957;51.412;6.724;2024-01-07T06:35:27;3.60;99.90
9837;DHT22;4957;51.412;6.724;2024-01-07T06:37:52;3.60;99.90
9837;DHT22;4957;51.412;6.724;2024-01-07T06:40:18;3.60;99.90
9837;DHT22;4957;51.412;6.724;2024-01-07T06:42:45;3.60;99.90
9837;DHT22;4957;51.412;6.724;2024-01-07T06:45:11;3.60;99.90
9837;DHT22;4957;51.412;6.724;2024-01-07T06:47:36;3.60;99.90
9837;DHT22;4957;51.412;6.724;2024-01-07T06:50:02;3.60;99.90
9837;DHT22;4957;51.412;6.724;2024-01-07T06:52:28;3.60;99.90
9837;DHT22;4957;51.412;6.724;2024-01-07T06:54:53;3.60;99.90
9837;DHT22;4957;51.412;6.724;2024-01-07T06:57:19;3.60;99.90
9837;DHT22;4957;51.412;6.724;2024-01-07T06:59:44;3.60;99.90
9837;DHT22;4957;51.412;6.724;2024-01-07T07:02:10;3.60;99.90
9837;DHT22;4957;51.412;6.724;2024-01-07T07:04:36;3.60;99.90
9837;DHT22;4957;51.412;6.724;2024-01-07T07:07:02;3.60;99.90
9837;DHT22;4957;51.412;6.724;2024-01-07T07:09:27;3.60;99.90
9837;DHT22;4957;51.412;6.724;2024-01-07T07:11:53;3.50;99.90
9837;DHT22;4957;51.412;6.724;2024-01-07T07:14:19;3.50;99.90
9837;DHT22;4957;51.412;6.724;2024-01-07T07:16:45;3.50;99.90
9837;DHT22;4957;51.412;6.724;2024-01-07T07:19:11;3.50;99.90
9837;DHT22;4957;51.412;6.724;2024-01-07T07:21:41;3.50;99.90
9837;DHT22;4957;51.412;6.724;2024-01-07T07:24:06;3.50;99.90
9837;DHT22;4957;51.412;6.724;2024-01-07T07:26:32;3.50;99.90
9837;DHT22;4957;51.412;6.724;2024-01-07T07:28:58;3.40;99.90
9837;DHT22;4957;51.412;6.724;2024-01-07T07:31:26;3.40;99.90
9837;DHT22;4957;51.412;6.724;2024-01-07T07:33:51;3.40;99.90
9837;DHT22;4957;51.412;6.724;2024-01-07T07:36:17;3.40;99.90
9837;DHT22;4957;51.412;6.724;2024-01-07T07:38:43;3.40;99.90
9837;DHT22;4957;51.412;6.724;2024-01-07T07:41:08;3.40;99.90
9837;DHT22;4957;51.412;6.724;2024-01-07T07:43:34;3.40;99.90
9837;DHT22;4957;51.412;6.724;2024-01-07T07:46:00;3.40;99.90
9837;DHT22;4957;51.412;6.724;2024-01-07T07:48:28;3.30;99.90
9837;DHT22;4957;51.412;6.724;2024-01-07T07:50:54;3.30;99.90
9837;DHT22;4957;51.412;6.724;2024-01-07T07:53:20;3.30;99.90
9837;DHT22;4957;51.412;6.724;2024-01-07T07:55:45;3.30;99.90
9837;DHT22;4957;51.412;6.724;2024-01-07T07:58:11;3.30;99.90
9837;DHT22;4957;51.412;6.724;2024-01-07T08:00:37;3.30;99.90
9837;DHT22;4957;51.412;6.724;2024-01-07T08:03:02;3.30;99.90
9837;DHT22;4957;51.412;6.724;2024-01-07T08:05:28;3.30;99.90
9837;DHT22;4957;51.412;6.724;2024-01-07T08:07:54;3.30;99.90
9837;DHT22;4957;51.412;6.724;2024-01-07T08:10:20;3.30;99.90
9837;DHT22;4957;51.412;6.724;2024-01-07T08:12:48;3.30;99.90
9837;DHT22;4957;51.412;6.724;2024-01-07T08:15:14;3.20;99.90
9837;DHT22;4957;51.412;6.724;2024-01-07T08:17:40;3.20;99.90
9837;DHT22;4957;51.412;6.724;2024-01-07T08:20:06;3.20;99.90
9837;DHT22;4957;51.412;6.724;2024-01-07T08:22:32;3.20;99.90
9837;DHT22;4957;51.412;6.724;2024-01-07T08:24:58;3.20;99.90
9837;DHT22;4957;51.412;6.724;2024-01-07T08:27:23;3.20;99.90
9837;DHT22;4957;51.412;6.724;2024-01-07T08:29:49;3.20;99.90
9837;DHT22;4957;51.412;6.724;2024-01-07T08:32:15;3.20;99.90
9837;DHT22;4957;51.412;6.724;2024-01-07T08:34:40;3.20;99.90
9837;DHT22;4957;51.412;6.724;2024-01-07T08:37:07;3.20;99.90
9837;DHT22;4957;51.412;6.724;2024-01-07T08:39:34;3.20;99.90
9837;DHT22;4957;51.412;6.724;2024-01-07T08:41:59;3.20;99.90
9837;DHT22;4957;51.412;6.724;2024-01-07T08:44:25;3.20;99.90
9837;DHT22;4957;51.412;6.724;2024-01-07T08:46:51;3.20;99.90
9837;DHT22;4957;51.412;6.724;2024-01-07T08:49:16;3.20;99.90
9837;DHT22;4957;51.412;6.724;2024-01-07T08:51:43;3.20;99.90
9837;DHT22;4957;51.412;6.724;2024-01-07T08:54:09;3.10;99.90
9837;DHT22;4957;51.412;6.724;2024-01-07T08:56:35;3.10;99.90
9837;DHT22;4957;51.412;6.724;2024-01-07T08:59:00;3.10;99.90
9837;DHT22;4957;51.412;6.724;2024-01-07T09:01:26;3.10;99.90
9837;DHT22;4957;51.412;6.724;2024-01-07T09:03:52;3.10;99.90
9837;DHT22;4957;51.412;6.724;2024-01-07T09:06:17;3.10;99.90
9837;DHT22;4957;51.412;6.724;2024-01-07T09:08:43;3.10;99.90
9837;DHT22;4957;51.412;6.724;2024-01-07T09:11:09;3.10;99.90
9837;DHT22;4957;51.412;6.724;2024-01-07T09:13:38;3.10;99.90
9837;DHT22;4957;51.412;6.724;2024-01-07T09:16:04;3.10;99.90
9837;DHT22;4957;51.412;6.724;2024-01-07T09:18:29;3.10;99.90
9837;DHT22;4957;51.412;6.724;2024-01-07T09:20:56;3.10;99.90
9837;DHT22;4957;51.412;6.724;2024-01-07T09:23:22;3.00;99.90
9837;DHT22;4957;51.412;6.724;2024-01-07T09:25:48;3.00;99.90
9837;DHT22;4957;51.412;6.724;2024-01-07T09:28:14;3.00;99.90
9837;DHT22;4957;51.412;6.724;2024-01-07T09:30:40;3.00;99.90
9837;DHT22;4957;51.412;6.724;2024-01-07T09:33:06;3.00;99.90
9837;DHT22;4957;51.412;6.724;2024-01-07T09:35:32;3.10;99.90
9837;DHT22;4957;51.412;6.724;2024-01-07T09:37:57;3.00;99.90
9837;DHT22;4957;51.412;6.724;2024-01-07T09:40:23;3.00;99.90
9837;DHT22;4957;51.412;6.724;2024-01-07T09:42:50;3.00;99.90
9837;DHT22;4957;51.412;6.724;2024-01-07T09:45:16;3.00;99.90
9837;DHT22;4957;51.412;6.724;2024-01-07T09:47:44;3.00;99.90
9837;DHT22;4957;51.412;6.724;2024-01-07T09:50:11;3.00;99.90
9837;DHT22;4957;51.412;6.724;2024-01-07T09:52:38;3.00;99.90
9837;DHT22;4957;51.412;6.724;2024-01-07T09:55:09;3.00;99.90
9837;DHT22;4957;51.412;6.724;2024-01-07T09:57:40;3.00;99.90
9837;DHT22;4957;51.412;6.724;2024-01-07T10:00:09;3.00;99.90
9837;DHT22;4957;51.412;6.724;2024-01-07T10:02:35;3.00;99.90
9837;DHT22;4957;51.412;6.724;2024-01-07T10:05:02;3.00;99.90
9837;DHT22;4957;51.412;6.724;2024-01-07T10:07:28;3.00;99.90
9837;DHT22;4957;51.412;6.724;2024-01-07T10:09:53;3.00;99.90
9837;DHT22;4957;51.412;6.724;2024-01-07T10:12:24;3.00;99.90
9837;DHT22;4957;51.412;6.724;2024-01-07T10:14:50;3.00;99.90
9837;DHT22;4957;51.412;6.724;2024-01-07T10:17:16;3.00;99.90
9837;DHT22;4957;51.412;6.724;2024-01-07T10:19:46;3.00;99.90
9837;DHT22;4957;51.412;6.724;2024-01-07T10:22:12;3.10;99.90
9837;DHT22;4957;51.412;6.724;2024-01-07T10:24:40;3.10;99.90
9837;DHT22;4957;51.412;6.724;2024-01-07T10:27:07;3.10;99.90
9837;DHT22;4957;51.412;6.724;2024-01-07T10:29:34;3.10;99.90
9837;DHT22;4957;51.412;6.724;2024-01-07T10:32:00;3.10;99.90
9837;DHT22;4957;51.412;6.724;2024-01-07T10:34:30;3.10;99.90
9837;DHT22;4957;51.412;6.724;2024-01-07T10:36:59;3.10;99.90
9837;DHT22;4957;51.412;6.724;2024-01-07T10:39:25;3.10;99.90
9837;DHT22;4957;51.412;6.724;2024-01-07T10:41:52;3.10;99.90
9837;DHT22;4957;51.412;6.724;2024-01-07T10:44:26;3.10;99.90
9837;DHT22;4957;51.412;6.724;2024-01-07T10:46:55;3.10;99.90
9837;DHT22;4957;51.412;6.724;2024-01-07T10:49:26;3.10;99.90
9837;DHT22;4957;51.412;6.724;2024-01-07T10:52:05;3.20;99.90
9837;DHT22;4957;51.412;6.724;2024-01-07T10:54:32;3.10;99.90
9837;DHT22;4957;51.412;6.724;2024-01-07T11:00:03;3.10;99.90
9837;DHT22;4957;51.412;6.724;2024-01-07T11:02:40;3.20;99.90
9837;DHT22;4957;51.412;6.724;2024-01-07T11:05:17;3.10;99.90
9837;DHT22;4957;51.412;6.724;2024-01-07T11:07:55;3.10;99.90
9837;DHT22;4957;51.412;6.724;2024-01-07T11:10:42;3.10;99.90
9837;DHT22;4957;51.412;6.724;2024-01-07T11:13:08;3.10;99.90
9837;DHT22;4957;51.412;6.724;2024-01-07T11:18:21;3.10;99.90
9837;DHT22;4957;51.412;6.724;2024-01-07T11:20:48;3.00;99.90
9837;DHT22;4957;51.412;6.724;2024-01-07T11:23:37;3.10;99.90
9837;DHT22;4957;51.412;6.724;2024-01-07T11:26:08;3.10;99.90
9837;DHT22;4957;51.412;6.724;2024-01-07T11:28:55;3.10;99.90
9837;DHT22;4957;51.412;6.724;2024-01-07T11:34:05;3.10;99.90
9837;DHT22;4957;51.412;6.724;2024-01-07T11:36:32;3.00;99.90
9837;DHT22;4957;51.412;6.724;2024-01-07T11:38:59;3.10;99.90
9837;DHT22;4957;51.412;6.724;2024-01-07T11:41:29;3.10;99.90
9837;DHT22;4957;51.412;6.724;2024-01-07T11:43:58;3.00;99.90
9837;DHT22;4957;51.412;6.724;2024-01-07T11:46:28;3.00;99.90
9837;DHT22;4957;51.412;6.724;2024-01-07T11:48:56;3.00;99.90
9837;DHT22;4957;51.412;6.724;2024-01-07T11:51:31;3.00;99.90
9837;DHT22;4957;51.412;6.724;2024-01-07T11:53:58;3.00;99.90
9837;DHT22;4957;51.412;6.724;2024-01-07T11:56:25;3.00;99.90
9837;DHT22;4957;51.412;6.724;2024-01-07T11:58:51;3.00;99.90
9837;DHT22;4957;51.412;6.724;2024-01-07T12:01:18;3.00;99.90
9837;DHT22;4957;51.412;6.724;2024-01-07T12:03:44;3.00;99.90
9837;DHT22;4957;51.412;6.724;2024-01-07T12:06:10;3.00;99.90
9837;DHT22;4957;51.412;6.724;2024-01-07T12:08:42;3.00;99.90
9837;DHT22;4957;51.412;6.724;2024-01-07T12:11:10;3.00;99.90
9837;DHT22;4957;51.412;6.724;2024-01-07T12:13:37;3.00;99.90
9837;DHT22;4957;51.412;6.724;2024-01-07T12:16:04;3.00;99.90
9837;DHT22;4957;51.412;6.724;2024-01-07T12:18:29;3.00;99.90
9837;DHT22;4957;51.412;6.724;2024-01-07T12:20:56;2.90;99.90
9837;DHT22;4957;51.412;6.724;2024-01-07T12:23:23;2.90;99.90
9837;DHT22;4957;51.412;6.724;2024-01-07T12:25:49;2.90;99.90
9837;DHT22;4957;51.412;6.724;2024-01-07T12:28:17;2.90;99.90
9837;DHT22;4957;51.412;6.724;2024-01-07T12:30:44;2.90;99.90
9837;DHT22;4957;51.412;6.724;2024-01-07T12:33:09;2.90;99.90
9837;DHT22;4957;51.412;6.724;2024-01-07T12:35:35;2.80;99.90
9837;DHT22;4957;51.412;6.724;2024-01-07T12:38:02;2.80;99.90
9837;DHT22;4957;51.412;6.724;2024-01-07T12:40:28;2.80;99.90
9837;DHT22;4957;51.412;6.724;2024-01-07T12:42:53;2.70;99.90
9837;DHT22;4957;51.412;6.724;2024-01-07T12:45:19;2.70;99.90
9837;DHT22;4957;51.412;6.724;2024-01-07T12:47:45;2.70;99.90
9837;DHT22;4957;51.412;6.724;2024-01-07T12:50:13;2.80;99.90
9837;DHT22;4957;51.412;6.724;2024-01-07T12:52:41;2.70;99.90
9837;DHT22;4957;51.412;6.724;2024-01-07T12:55:07;2.80;99.90
9837;DHT22;4957;51.412;6.724;2024-01-07T12:57:34;2.70;99.90
9837;DHT22;4957;51.412;6.724;2024-01-07T12:59:59;2.80;99.90
9837;DHT22;4957;51.412;6.724;2024-01-07T13:02:26;2.80;99.90
9837;DHT22;4957;51.412;6.724;2024-01-07T13:04:51;2.80;99.90
9837;DHT22;4957;51.412;6.724;2024-01-07T13:07:17;2.80;99.90
9837;DHT22;4957;51.412;6.724;2024-01-07T13:09:43;2.80;99.90
9837;DHT22;4957;51.412;6.724;2024-01-07T13:12:10;2.80;99.90
9837;DHT22;4957;51.412;6.724;2024-01-07T13:14:36;2.80;99.90
9837;DHT22;4957;51.412;6.724;2024-01-07T13:17:02;2.80;99.90
9837;DHT22;4957;51.412;6.724;2024-01-07T13:19:28;2.80;99.90
9837;DHT22;4957;51.412;6.724;2024-01-07T13:21:53;2.80;99.90
9837;DHT22;4957;51.412;6.724;2024-01-07T13:24:25;2.80;99.90
9837;DHT22;4957;51.412;6.724;2024-01-07T13:26:50;2.80;99.90
9837;DHT22;4957;51.412;6.724;2024-01-07T13:29:16;2.80;99.90
9837;DHT22;4957;51.412;6.724;2024-01-07T13:31:42;2.80;99.90
9837;DHT22;4957;51.412;6.724;2024-01-07T13:34:08;2.80;99.90
9837;DHT22;4957;51.412;6.724;2024-01-07T13:36:34;2.70;99.90
9837;DHT22;4957;51.412;6.724;2024-01-07T13:38:59;2.70;99.90
9837;DHT22;4957;51.412;6.724;2024-01-07T13:41:25;2.70;99.90
9837;DHT22;4957;51.412;6.724;2024-01-07T13:43:54;2.70;99.90
9837;DHT22;4957;51.412;6.724;2024-01-07T13:46:21;2.70;99.90
9837;DHT22;4957;51.412;6.724;2024-01-07T13:48:49;2.70;99.90
9837;DHT22;4957;51.412;6.724;2024-01-07T13:51:14;2.70;99.90
9837;DHT22;4957;51.412;6.724;2024-01-07T13:53:40;2.70;99.90
9837;DHT22;4957;51.412;6.724;2024-01-07T13:56:06;2.60;99.90
9837;DHT22;4957;51.412;6.724;2024-01-07T13:58:32;2.70;99.90
9837;DHT22;4957;51.412;6.724;2024-01-07T14:00:58;2.70;99.90
9837;DHT22;4957;51.412;6.724;2024-01-07T14:03:24;2.60;99.90
9837;DHT22;4957;51.412;6.724;2024-01-07T14:05:49;2.60;99.90
9837;DHT22;4957;51.412;6.724;2024-01-07T14:08:17;2.60;99.90
9837;DHT22;4957;51.412;6.724;2024-01-07T14:10:42;2.60;99.90
9837;DHT22;4957;51.412;6.724;2024-01-07T14:13:08;2.60;99.90
9837;DHT22;4957;51.412;6.724;2024-01-07T14:15:34;2.60;99.90
9837;DHT22;4957;51.412;6.724;2024-01-07T14:18:00;2.60;99.90
9837;DHT22;4957;51.412;6.724;2024-01-07T14:20:25;2.60;99.90
9837;DHT22;4957;51.412;6.724;2024-01-07T14:22:54;2.60;99.90
9837;DHT22;4957;51.412;6.724;2024-01-07T14:25:19;2.60;99.90
9837;DHT22;4957;51.412;6.724;2024-01-07T14:27:46;2.60;99.90
9837;DHT22;4957;51.412;6.724;2024-01-07T14:30:12;2.60;99.90
9837;DHT22;4957;51.412;6.724;2024-01-07T14:32:41;2.60;99.90
9837;DHT22;4957;51.412;6.724;2024-01-07T14:35:07;2.60;99.90
9837;DHT22;4957;51.412;6.724;2024-01-07T14:37:33;2.50;99.90
9837;DHT22;4957;51.412;6.724;2024-01-07T14:39:59;2.50;99.90
9837;DHT22;4957;51.412;6.724;2024-01-07T14:42:24;2.50;99.90
9837;DHT22;4957;51.412;6.724;2024-01-07T14:44:50;2.50;99.90
9837;DHT22;4957;51.412;6.724;2024-01-07T14:47:16;2.50;99.90
9837;DHT22;4957;51.412;6.724;2024-01-07T14:49:43;2.50;99.90
9837;DHT22;4957;51.412;6.724;2024-01-07T14:52:08;2.50;99.90
9837;DHT22;4957;51.412;6.724;2024-01-07T14:54:34;2.40;99.90
9837;DHT22;4957;51.412;6.724;2024-01-07T14:57:01;2.40;99.90
9837;DHT22;4957;51.412;6.724;2024-01-07T14:59:26;2.40;99.90
9837;DHT22;4957;51.412;6.724;2024-01-07T15:01:52;2.40;99.90
9837;DHT22;4957;51.412;6.724;2024-01-07T15:04:19;2.40;99.90
9837;DHT22;4957;51.412;6.724;2024-01-07T15:06:44;2.40;99.90
9837;DHT22;4957;51.412;6.724;2024-01-07T15:09:12;2.40;99.90
9837;DHT22;4957;51.412;6.724;2024-01-07T15:11:40;2.40;99.90
9837;DHT22;4957;51.412;6.724;2024-01-07T15:14:08;2.40;99.90
9837;DHT22;4957;51.412;6.724;2024-01-07T15:16:36;2.40;99.90
9837;DHT22;4957;51.412;6.724;2024-01-07T15:19:02;2.40;99.90
9837;DHT22;4957;51.412;6.724;2024-01-07T15:21:29;2.50;99.90
9837;DHT22;4957;51.412;6.724;2024-01-07T15:23:54;2.40;99.90
9837;DHT22;4957;51.412;6.724;2024-01-07T15:26:20;2.40;99.90
9837;DHT22;4957;51.412;6.724;2024-01-07T15:28:46;2.40;99.90
9837;DHT22;4957;51.412;6.724;2024-01-07T15:31:12;2.40;99.90
9837;DHT22;4957;51.412;6.724;2024-01-07T15:33:37;2.40;99.90
9837;DHT22;4957;51.412;6.724;2024-01-07T15:36:03;2.30;99.90
9837;DHT22;4957;51.412;6.724;2024-01-07T15:38:29;2.30;99.90
9837;DHT22;4957;51.412;6.724;2024-01-07T15:40:55;2.30;99.90
9837;DHT22;4957;51.412;6.724;2024-01-07T15:43:20;2.30;99.90
9837;DHT22;4957;51.412;6.724;2024-01-07T15:45:46;2.30;99.90
9837;DHT22;4957;51.412;6.724;2024-01-07T15:48:12;2.30;99.90
9837;DHT22;4957;51.412;6.724;2024-01-07T15:50:38;2.30;99.90
9837;DHT22;4957;51.412;6.724;2024-01-07T15:53:03;2.30;99.90
9837;DHT22;4957;51.412;6.724;2024-01-07T15:55:29;2.20;99.90
9837;DHT22;4957;51.412;6.724;2024-01-07T15:57:55;2.30;99.90
9837;DHT22;4957;51.412;6.724;2024-01-07T16:00:21;2.30;99.90
9837;DHT22;4957;51.412;6.724;2024-01-07T16:02:46;2.20;99.90
9837;DHT22;4957;51.412;6.724;2024-01-07T16:05:12;2.30;99.90
9837;DHT22;4957;51.412;6.724;2024-01-07T16:07:38;2.30;99.90
9837;DHT22;4957;51.412;6.724;2024-01-07T16:10:04;2.20;99.90
9837;DHT22;4957;51.412;6.724;2024-01-07T16:12:30;2.20;99.90
9837;DHT22;4957;51.412;6.724;2024-01-07T16:14:56;2.20;99.90
9837;DHT22;4957;51.412;6.724;2024-01-07T16:17:23;2.20;99.90
9837;DHT22;4957;51.412;6.724;2024-01-07T16:19:49;2.20;99.90